createdAt,value
2022-12-31T00:06:35.340Z,0
2022-12-31T00:07:15.848Z,0
2022-12-31T00:09:28.649Z,0
2022-12-31T00:10:09.184Z,0
2022-12-31T00:10:49.749Z,0
2022-12-31T00:11:30.284Z,0
2022-12-31T00:12:10.839Z,0
2022-12-31T00:12:51.358Z,0
2022-12-31T00:13:31.880Z,0
2022-12-31T00:14:12.403Z,0
2022-12-31T00:14:52.981Z,0
2022-12-31T00:15:33.503Z,0
2022-12-31T00:22:18.753Z,0
2022-12-31T00:22:59.272Z,0
2022-12-31T00:23:39.820Z,0
2022-12-31T00:24:20.365Z,0
2022-12-31T00:25:00.892Z,0
2022-12-31T00:25:41.439Z,0
2022-12-31T00:26:22.875Z,0
2022-12-31T00:27:03.393Z,0
2022-12-31T00:33:48.816Z,0
2022-12-31T00:34:29.322Z,0
2022-12-31T00:35:09.839Z,0
2022-12-31T00:35:50.352Z,0
2022-12-31T00:36:30.903Z,0
2022-12-31T00:37:11.419Z,0
2022-12-31T00:37:51.951Z,0
2022-12-31T00:38:32.520Z,0
2022-12-31T00:39:13.087Z,0
2022-12-31T00:39:54.618Z,0
2022-12-31T00:44:38.345Z,0
2022-12-31T00:45:18.866Z,0
2022-12-31T00:45:59.390Z,0
2022-12-31T00:48:27.819Z,0
2022-12-31T00:49:08.357Z,0
2022-12-31T00:49:48.890Z,0
2022-12-31T00:50:29.442Z,0
2022-12-31T00:51:09.984Z,0
2022-12-31T00:51:50.527Z,0
2022-12-31T00:52:31.047Z,0
2022-12-31T00:53:11.568Z,0
2022-12-31T00:53:52.103Z,0
2022-12-31T00:54:32.648Z,0
2022-12-31T00:59:57.597Z,0
2022-12-31T01:00:38.076Z,0
2022-12-31T01:01:18.806Z,0
2022-12-31T01:01:59.221Z,0
2022-12-31T01:02:39.818Z,0
2022-12-31T01:04:53.292Z,0
2022-12-31T01:05:34.390Z,0
2022-12-31T01:06:15.487Z,0
2022-12-31T01:06:56.819Z,0
2022-12-31T01:09:10.377Z,0
2022-12-31T01:09:50.928Z,0
2022-12-31T01:10:31.494Z,0
2022-12-31T01:11:11.967Z,0
2022-12-31T01:11:52.504Z,0
2022-12-31T01:12:33.031Z,0
2022-12-31T01:13:13.540Z,0
2022-12-31T01:13:54.136Z,0
2022-12-31T01:14:35.260Z,0
2022-12-31T01:20:40.131Z,0
2022-12-31T01:21:21.371Z,0
2022-12-31T01:22:01.905Z,0
2022-12-31T01:22:42.422Z,0
2022-12-31T01:23:22.983Z,0
2022-12-31T01:24:03.559Z,0
2022-12-31T01:24:44.184Z,0
2022-12-31T01:25:24.667Z,0
2022-12-31T01:26:05.183Z,0
2022-12-31T01:31:30.332Z,0
2022-12-31T01:32:10.787Z,0
2022-12-31T01:32:51.329Z,0
2022-12-31T01:33:31.914Z,0
2022-12-31T01:34:12.462Z,0
2022-12-31T01:34:53.027Z,0
2022-12-31T01:35:33.664Z,0
2022-12-31T01:36:14.136Z,0
2022-12-31T01:36:54.718Z,0
2022-12-31T01:39:23.075Z,0
2022-12-31T01:40:04.654Z,0
2022-12-31T01:40:46.745Z,0
2022-12-31T01:41:27.321Z,0
2022-12-31T01:42:08.362Z,0
2022-12-31T01:43:33.630Z,0
2022-12-31T01:44:14.179Z,0
2022-12-31T01:44:55.599Z,0
2022-12-31T01:47:10.297Z,0
2022-12-31T01:47:51.517Z,0
2022-12-31T01:48:32.799Z,0
2022-12-31T01:49:13.287Z,0
2022-12-31T01:51:33.057Z,0
2022-12-31T01:52:13.581Z,0
2022-12-31T01:52:54.269Z,0
2022-12-31T01:53:34.902Z,0
2022-12-31T01:54:17.293Z,0
2022-12-31T01:54:57.847Z,0
2022-12-31T01:58:23.148Z,0
2022-12-31T01:59:03.706Z,0
2022-12-31T01:59:45.848Z,0
2022-12-31T02:02:04.159Z,0
2022-12-31T02:02:44.685Z,0
2022-12-31T02:03:25.116Z,0
2022-12-31T02:04:05.610Z,0
2022-12-31T02:04:46.129Z,0
2022-12-31T02:05:26.652Z,0
2022-12-31T02:06:07.156Z,0
2022-12-31T02:06:47.721Z,0
2022-12-31T02:07:28.277Z,0
2022-12-31T02:08:08.791Z,0
2022-12-31T02:12:49.402Z,0
2022-12-31T02:13:30.030Z,0
2022-12-31T02:14:10.674Z,0
2022-12-31T02:14:51.170Z,0
2022-12-31T02:15:31.770Z,0
2022-12-31T02:16:12.319Z,0
2022-12-31T02:16:52.810Z,0
2022-12-31T02:17:33.361Z,0
2022-12-31T02:18:13.869Z,0
2022-12-31T02:18:54.737Z,0
2022-12-31T02:24:19.256Z,0
2022-12-31T02:24:59.891Z,0
2022-12-31T02:25:40.390Z,0
2022-12-31T02:26:21.010Z,0
2022-12-31T02:27:01.551Z,0
2022-12-31T02:27:42.119Z,0
2022-12-31T02:28:22.686Z,0
2022-12-31T02:29:03.249Z,0
2022-12-31T02:31:16.992Z,0
2022-12-31T02:31:57.322Z,0
2022-12-31T02:32:37.901Z,0
2022-12-31T02:33:18.459Z,0
2022-12-31T02:33:58.987Z,0
2022-12-31T02:36:12.099Z,0
2022-12-31T02:36:52.745Z,0
2022-12-31T02:37:33.246Z,0
2022-12-31T02:38:13.822Z,0
2022-12-31T02:38:55.190Z,0
2022-12-31T02:39:35.782Z,0
2022-12-31T02:41:49.418Z,0
2022-12-31T02:42:30.034Z,0
2022-12-31T02:43:10.526Z,0
2022-12-31T02:43:51.066Z,0
2022-12-31T02:44:31.644Z,0
2022-12-31T02:45:12.175Z,0
2022-12-31T02:45:52.723Z,0
2022-12-31T02:46:33.319Z,0
2022-12-31T02:47:14.012Z,0
2022-12-31T02:47:54.480Z,0
2022-12-31T02:51:59.103Z,0
2022-12-31T02:52:39.704Z,0
2022-12-31T02:53:20.344Z,0
2022-12-31T02:54:00.872Z,0
2022-12-31T02:57:19.704Z,0
2022-12-31T02:58:01.957Z,0
2022-12-31T02:58:43.796Z,0
2022-12-31T02:59:24.222Z,0
2022-12-31T03:01:37.959Z,0
2022-12-31T03:02:18.408Z,0
2022-12-31T03:02:58.928Z,0
2022-12-31T03:03:39.372Z,0
2022-12-31T03:05:52.439Z,0
2022-12-31T03:06:32.976Z,0
2022-12-31T03:07:13.476Z,0
2022-12-31T03:07:54.014Z,0
2022-12-31T03:10:12.161Z,0
2022-12-31T03:10:52.674Z,0
2022-12-31T03:11:33.217Z,0
2022-12-31T03:12:13.771Z,0
2022-12-31T03:12:54.308Z,0
2022-12-31T03:15:07.344Z,0
2022-12-31T03:15:47.931Z,0
2022-12-31T03:16:28.498Z,0
2022-12-31T03:17:08.938Z,0
2022-12-31T03:17:49.447Z,0
2022-12-31T03:18:30.858Z,0
2022-12-31T03:19:11.367Z,0
2022-12-31T03:19:51.894Z,0
2022-12-31T03:20:32.434Z,0
2022-12-31T03:26:37.314Z,0
2022-12-31T03:27:17.839Z,0
2022-12-31T03:27:58.401Z,0
2022-12-31T03:30:13.218Z,0
2022-12-31T03:30:53.755Z,0
2022-12-31T03:31:34.349Z,0
2022-12-31T03:32:16.403Z,0
2022-12-31T03:34:30.018Z,0
2022-12-31T03:35:10.601Z,0
2022-12-31T03:35:51.120Z,0
2022-12-31T03:36:31.645Z,0
2022-12-31T03:37:12.210Z,0
2022-12-31T03:37:52.774Z,0
2022-12-31T03:38:33.345Z,0
2022-12-31T03:39:13.888Z,0
2022-12-31T03:39:54.437Z,0
2022-12-31T03:40:35.026Z,0
2022-12-31T03:47:57.649Z,0
2022-12-31T03:48:38.166Z,0
2022-12-31T03:49:18.671Z,0
2022-12-31T03:49:59.219Z,0
2022-12-31T03:50:39.765Z,0
2022-12-31T03:51:20.300Z,0
2022-12-31T03:52:00.846Z,0
2022-12-31T03:54:14.773Z,0
2022-12-31T03:54:55.286Z,0
2022-12-31T03:55:35.819Z,0
2022-12-31T03:56:16.307Z,0
2022-12-31T03:57:00.174Z,0
2022-12-31T03:57:38.013Z,0
2022-12-31T03:58:19.131Z,0
2022-12-31T04:01:12.845Z,0
2022-12-31T04:01:53.430Z,0
2022-12-31T04:02:34.021Z,0
2022-12-31T04:03:14.444Z,0
2022-12-31T04:03:54.907Z,0
2022-12-31T04:04:35.408Z,0
2022-12-31T04:05:15.937Z,0
2022-12-31T04:05:56.575Z,0
2022-12-31T04:06:37.173Z,0
2022-12-31T04:07:17.706Z,0
2022-12-31T04:10:52.003Z,0
2022-12-31T04:11:32.522Z,0
2022-12-31T04:12:14.032Z,0
2022-12-31T04:12:54.677Z,0
2022-12-31T04:13:35.341Z,0
2022-12-31T04:14:16.547Z,0
2022-12-31T04:18:23.070Z,0
2022-12-31T04:19:03.591Z,0
2022-12-31T04:19:44.126Z,0
2022-12-31T04:20:24.679Z,0
2022-12-31T04:21:05.257Z,0
2022-12-31T04:23:23.467Z,0
2022-12-31T04:24:04.657Z,0
2022-12-31T04:24:45.206Z,0
2022-12-31T04:25:25.745Z,0
2022-12-31T04:26:07.193Z,0
2022-12-31T04:26:47.669Z,0
2022-12-31T04:27:28.193Z,0
2022-12-31T04:30:53.527Z,0
2022-12-31T04:31:34.133Z,0
2022-12-31T04:32:15.363Z,0
2022-12-31T04:32:56.404Z,0
2022-12-31T04:33:36.922Z,0
2022-12-31T04:34:17.415Z,0
2022-12-31T04:34:57.953Z,0
2022-12-31T04:35:38.508Z,0
2022-12-31T04:38:32.107Z,0
2022-12-31T04:39:12.638Z,0
2022-12-31T04:39:53.190Z,0
2022-12-31T04:40:33.744Z,0
2022-12-31T04:43:13.538Z,0
2022-12-31T04:44:01.215Z,0
2022-12-31T04:44:42.739Z,0
2022-12-31T04:45:30.000Z,0
2022-12-31T04:46:14.135Z,0
2022-12-31T04:46:58.313Z,0
2022-12-31T04:47:42.921Z,0
2022-12-31T04:48:27.280Z,0
2022-12-31T04:49:14.897Z,0
2022-12-31T04:49:57.312Z,0
2022-12-31T04:52:12.035Z,0
2022-12-31T04:52:52.581Z,0
2022-12-31T04:53:34.171Z,0
2022-12-31T04:54:15.119Z,0
2022-12-31T04:54:55.618Z,0
2022-12-31T04:57:08.419Z,0
2022-12-31T04:57:49.003Z,0
2022-12-31T04:58:29.577Z,0
2022-12-31T04:59:10.138Z,0
2022-12-31T04:59:50.760Z,0
2022-12-31T05:00:32.362Z,0
2022-12-31T05:01:12.950Z,0
2022-12-31T05:01:53.548Z,0
2022-12-31T05:05:53.232Z,0
2022-12-31T05:06:33.964Z,0
2022-12-31T05:07:14.501Z,0
2022-12-31T05:07:55.053Z,0
2022-12-31T05:08:35.701Z,0
2022-12-31T05:09:16.293Z,0
2022-12-31T05:09:57.656Z,0
2022-12-31T05:10:38.187Z,0
2022-12-31T05:13:47.950Z,0
2022-12-31T05:14:28.504Z,0
2022-12-31T05:15:09.629Z,0
2022-12-31T05:15:51.086Z,0
2022-12-31T05:16:31.577Z,0
2022-12-31T05:17:12.133Z,0
2022-12-31T05:17:52.682Z,0
2022-12-31T05:21:52.285Z,0
2022-12-31T05:22:32.860Z,0
2022-12-31T05:23:13.418Z,0
2022-12-31T05:23:53.953Z,0
2022-12-31T05:24:34.519Z,0
2022-12-31T05:25:15.053Z,0
2022-12-31T05:27:28.895Z,0
2022-12-31T05:28:10.190Z,0
2022-12-31T05:28:50.775Z,0
2022-12-31T05:29:31.308Z,0
2022-12-31T05:31:29.431Z,0
2022-12-31T05:32:09.986Z,0
2022-12-31T05:32:50.525Z,0
2022-12-31T05:33:31.074Z,0
2022-12-31T05:34:11.554Z,0
2022-12-31T05:34:52.085Z,0
2022-12-31T05:35:32.649Z,0
2022-12-31T05:36:13.249Z,0
2022-12-31T05:36:53.749Z,0
2022-12-31T05:37:34.249Z,0
2022-12-31T05:42:04.632Z,0
2022-12-31T05:42:45.287Z,0
2022-12-31T05:43:25.799Z,0
2022-12-31T05:44:06.509Z,0
2022-12-31T05:44:47.006Z,0
2022-12-31T05:45:30.882Z,0
2022-12-31T05:46:08.201Z,0
2022-12-31T05:46:48.627Z,0
2022-12-31T05:47:29.302Z,0
2022-12-31T05:54:41.909Z,0
2022-12-31T05:55:22.433Z,0
2022-12-31T05:56:03.756Z,0
2022-12-31T05:56:44.303Z,0
2022-12-31T05:57:24.848Z,0
2022-12-31T05:58:05.386Z,0
2022-12-31T05:58:45.884Z,0
2022-12-31T05:59:26.507Z,0
2022-12-31T06:04:51.604Z,0
2022-12-31T06:05:32.088Z,0
2022-12-31T06:06:12.750Z,0
2022-12-31T06:06:53.276Z,0
2022-12-31T06:07:33.849Z,0
2022-12-31T06:10:02.676Z,0
2022-12-31T06:10:43.205Z,0
2022-12-31T06:11:23.724Z,0
2022-12-31T06:12:04.256Z,0
2022-12-31T06:14:18.802Z,0
2022-12-31T06:14:59.349Z,0
2022-12-31T06:15:39.925Z,0
2022-12-31T06:16:20.408Z,0
2022-12-31T06:17:00.930Z,0
2022-12-31T06:17:41.481Z,0
2022-12-31T06:18:22.799Z,0
2022-12-31T06:19:04.193Z,0
2022-12-31T06:22:28.942Z,0
2022-12-31T06:23:10.449Z,0
2022-12-31T06:23:51.021Z,0
2022-12-31T06:26:04.264Z,0
2022-12-31T06:26:45.141Z,0
2022-12-31T06:27:25.666Z,0
2022-12-31T06:28:06.268Z,0
2022-12-31T06:28:46.863Z,0
2022-12-31T06:29:28.299Z,0
2022-12-31T06:30:09.858Z,0
2022-12-31T06:34:14.095Z,0
2022-12-31T06:34:54.592Z,0
2022-12-31T06:35:36.123Z,0
2022-12-31T06:36:16.627Z,0
2022-12-31T06:36:57.365Z,0
2022-12-31T06:37:39.358Z,0
2022-12-31T06:40:08.764Z,0
2022-12-31T06:40:49.281Z,0
2022-12-31T06:41:29.884Z,0
2022-12-31T06:42:10.456Z,0
2022-12-31T06:44:49.824Z,0
2022-12-31T06:45:30.397Z,0
2022-12-31T06:46:11.519Z,0
2022-12-31T06:46:52.113Z,0
2022-12-31T06:49:05.096Z,4
2022-12-31T06:49:45.660Z,4
2022-12-31T06:50:26.229Z,4
2022-12-31T06:51:09.543Z,0
2022-12-31T06:51:47.298Z,0
2022-12-31T06:52:27.815Z,4
2022-12-31T06:53:08.338Z,4
2022-12-31T06:53:48.889Z,4
2022-12-31T06:54:29.398Z,4
2022-12-31T06:55:09.943Z,4
2022-12-31T06:59:10.793Z,12
2022-12-31T06:59:51.927Z,8
2022-12-31T07:00:32.457Z,16
2022-12-31T07:01:13.007Z,16
2022-12-31T07:05:27.538Z,28
2022-12-31T07:06:08.036Z,28
2022-12-31T07:06:48.548Z,32
2022-12-31T07:07:29.072Z,36
2022-12-31T07:08:09.597Z,40
2022-12-31T07:08:50.099Z,44
2022-12-31T07:09:30.637Z,48
2022-12-31T07:10:11.188Z,52
2022-12-31T07:10:51.694Z,56
2022-12-31T07:11:32.209Z,56
2022-12-31T07:15:31.793Z,84
2022-12-31T07:16:12.352Z,84
2022-12-31T07:16:52.837Z,92
2022-12-31T07:17:33.882Z,96
2022-12-31T07:18:15.256Z,100
2022-12-31T07:18:55.799Z,108
2022-12-31T07:19:36.331Z,116
2022-12-31T07:20:16.841Z,128
2022-12-31T07:25:38.138Z,212
2022-12-31T07:26:18.662Z,228
2022-12-31T07:27:00.071Z,248
2022-12-31T07:27:40.569Z,260
2022-12-31T07:28:21.125Z,280
2022-12-31T07:29:01.657Z,292
2022-12-31T07:29:43.152Z,308
2022-12-31T07:32:21.370Z,376
2022-12-31T07:33:01.927Z,400
2022-12-31T07:33:42.478Z,432
2022-12-31T07:34:23.013Z,468
2022-12-31T07:35:03.550Z,504
2022-12-31T07:35:44.083Z,536
2022-12-31T07:36:24.583Z,564
2022-12-31T07:37:05.802Z,596
2022-12-31T07:37:46.340Z,632
2022-12-31T07:43:12.320Z,864
2022-12-31T07:43:52.891Z,896
2022-12-31T07:44:33.392Z,920
2022-12-31T07:45:13.889Z,940
2022-12-31T07:45:54.489Z,960
2022-12-31T07:46:35.023Z,976
2022-12-31T07:47:15.518Z,988
2022-12-31T07:48:00.588Z,992
2022-12-31T07:51:55.405Z,932
2022-12-31T07:52:35.958Z,960
2022-12-31T07:53:16.490Z,996
2022-12-31T07:53:57.009Z,1044
2022-12-31T07:54:37.555Z,1124
2022-12-31T07:55:18.056Z,1228
2022-12-31T07:55:58.602Z,1320
2022-12-31T07:56:39.119Z,1388
2022-12-31T07:57:19.628Z,1420
2022-12-31T07:58:00.155Z,1448
2022-12-31T08:02:00.880Z,1808
2022-12-31T08:02:41.367Z,1808
2022-12-31T08:03:21.883Z,1804
2022-12-31T08:04:02.368Z,1800
2022-12-31T08:04:42.899Z,1800
2022-12-31T08:05:23.428Z,1788
2022-12-31T08:06:03.953Z,1776
2022-12-31T08:06:45.188Z,1716
2022-12-31T08:07:25.715Z,1676
2022-12-31T08:12:50.831Z,1948
2022-12-31T08:13:31.341Z,1960
2022-12-31T08:14:11.856Z,1972
2022-12-31T08:14:53.260Z,1972
2022-12-31T08:15:33.821Z,1988
2022-12-31T08:16:14.922Z,2048
2022-12-31T08:16:55.392Z,2112
2022-12-31T08:21:35.924Z,2420
2022-12-31T08:22:16.458Z,2448
2022-12-31T08:22:56.966Z,2500
2022-12-31T08:23:37.506Z,2560
2022-12-31T08:24:18.087Z,2616
2022-12-31T08:24:58.588Z,2688
2022-12-31T08:25:39.112Z,2760
2022-12-31T08:26:20.321Z,2836
2022-12-31T08:27:00.873Z,2904
2022-12-31T08:33:05.644Z,3588
2022-12-31T08:33:46.174Z,3396
2022-12-31T08:35:59.594Z,3128
2022-12-31T08:36:40.088Z,3168
2022-12-31T08:37:20.704Z,3236
2022-12-31T08:38:01.229Z,3308
2022-12-31T08:38:41.767Z,3348
2022-12-31T08:39:22.297Z,3388
2022-12-31T08:40:02.838Z,3384
2022-12-31T08:40:43.436Z,3344
2022-12-31T08:41:24.026Z,3316
2022-12-31T08:42:04.577Z,3312
2022-12-31T08:48:09.559Z,3860
2022-12-31T08:48:50.116Z,3888
2022-12-31T08:49:30.743Z,3908
2022-12-31T08:50:11.278Z,3904
2022-12-31T08:50:51.791Z,3908
2022-12-31T08:51:32.382Z,3904
2022-12-31T08:52:12.863Z,3924
2022-12-31T08:52:53.413Z,3860
2022-12-31T08:53:33.962Z,3824
2022-12-31T08:54:14.546Z,3848
2022-12-31T09:00:19.573Z,4156
2022-12-31T09:01:00.216Z,4192
2022-12-31T09:01:40.751Z,4252
2022-12-31T09:02:21.247Z,4320
2022-12-31T09:03:01.815Z,4396
2022-12-31T09:03:42.329Z,4492
2022-12-31T09:04:22.934Z,4580
2022-12-31T09:05:03.476Z,4684
2022-12-31T09:05:44.181Z,4756
2022-12-31T09:06:24.651Z,4784
2022-12-31T09:12:29.757Z,4936
2022-12-31T09:13:31.024Z,4856
2022-12-31T09:14:20.296Z,4728
2022-12-31T09:15:00.857Z,4628
2022-12-31T09:15:42.358Z,4516
2022-12-31T09:16:23.016Z,4396
2022-12-31T09:17:03.528Z,4244
2022-12-31T09:19:16.341Z,3868
2022-12-31T09:19:56.895Z,3724
2022-12-31T09:20:44.923Z,3556
2022-12-31T09:21:18.006Z,3472
2022-12-31T09:21:58.527Z,3416
2022-12-31T09:22:39.214Z,3392
2022-12-31T09:23:19.751Z,3388
2022-12-31T09:24:04.503Z,3416
2022-12-31T09:26:13.673Z,3764
2022-12-31T09:26:55.131Z,3872
2022-12-31T09:27:35.698Z,3940
2022-12-31T09:28:16.367Z,4020
2022-12-31T09:28:56.810Z,4168
2022-12-31T09:29:37.276Z,4284
2022-12-31T09:30:17.816Z,4412
2022-12-31T09:30:58.903Z,4548
2022-12-31T09:33:37.129Z,5184
2022-12-31T09:34:17.679Z,5284
2022-12-31T09:34:58.353Z,5328
2022-12-31T09:35:38.782Z,5404
2022-12-31T09:36:19.340Z,5472
2022-12-31T09:36:59.883Z,5544
2022-12-31T09:37:40.434Z,5588
2022-12-31T09:38:21.119Z,5640
2022-12-31T09:39:02.354Z,5644
2022-12-31T09:45:07.303Z,4860
2022-12-31T09:45:48.866Z,4832
2022-12-31T09:46:29.488Z,4760
2022-12-31T09:47:10.038Z,4644
2022-12-31T09:47:50.560Z,4500
2022-12-31T09:48:31.076Z,4448
2022-12-31T09:50:43.904Z,4432
2022-12-31T09:51:25.601Z,4516
2022-12-31T09:52:05.884Z,4604
2022-12-31T09:52:46.486Z,4756
2022-12-31T09:53:27.021Z,4912
2022-12-31T09:54:07.582Z,4908
2022-12-31T09:56:21.193Z,4668
2022-12-31T09:57:01.707Z,4624
2022-12-31T09:57:42.221Z,4556
2022-12-31T09:58:23.423Z,4568
2022-12-31T10:00:36.277Z,4504
2022-12-31T10:01:16.916Z,4444
2022-12-31T10:01:57.500Z,4468
2022-12-31T10:02:38.038Z,4444
2022-12-31T10:03:18.543Z,4412
2022-12-31T10:03:58.968Z,4376
2022-12-31T10:04:39.513Z,4292
2022-12-31T10:05:20.665Z,4336
2022-12-31T10:10:00.875Z,4224
2022-12-31T10:10:41.438Z,4168
2022-12-31T10:11:21.954Z,4088
2022-12-31T10:12:02.496Z,4052
2022-12-31T10:12:43.042Z,3956
2022-12-31T10:13:23.588Z,3912
2022-12-31T10:14:04.152Z,3916
2022-12-31T10:16:20.985Z,4016
2022-12-31T10:17:03.219Z,3976
2022-12-31T10:17:46.645Z,4072
2022-12-31T10:18:29.761Z,4116
2022-12-31T10:20:45.384Z,4188
2022-12-31T10:21:23.616Z,4224
2022-12-31T10:22:04.122Z,4244
2022-12-31T10:22:44.635Z,4204
2022-12-31T10:23:25.134Z,4192
2022-12-31T10:24:05.686Z,4196
2022-12-31T10:24:46.226Z,4172
2022-12-31T10:25:37.821Z,4236
2022-12-31T10:26:07.335Z,4268
2022-12-31T10:26:52.981Z,4308
2022-12-31T10:30:52.911Z,4304
2022-12-31T10:31:33.394Z,4320
2022-12-31T10:32:13.919Z,4336
2022-12-31T10:32:54.487Z,4372
2022-12-31T10:33:35.022Z,4404
2022-12-31T10:34:15.580Z,4432
2022-12-31T10:34:56.124Z,4432
2022-12-31T10:35:36.687Z,4424
2022-12-31T10:36:17.229Z,4404
2022-12-31T10:36:57.779Z,4396
2022-12-31T10:41:03.610Z,4440
2022-12-31T10:41:44.151Z,4500
2022-12-31T10:42:24.707Z,4520
2022-12-31T10:43:05.203Z,4496
2022-12-31T10:43:46.516Z,4512
2022-12-31T10:44:27.025Z,4528
2022-12-31T10:45:07.558Z,4512
2022-12-31T10:45:48.172Z,4476
2022-12-31T10:50:32.988Z,4240
2022-12-31T10:51:13.506Z,4240
2022-12-31T10:51:54.061Z,4284
2022-12-31T10:52:39.856Z,4216
2022-12-31T10:53:15.207Z,4268
2022-12-31T10:53:55.760Z,4328
2022-12-31T10:56:11.023Z,4644
2022-12-31T10:56:51.510Z,4696
2022-12-31T10:57:32.028Z,4740
2022-12-31T10:58:12.561Z,4788
2022-12-31T11:00:10.263Z,4976
2022-12-31T11:00:50.943Z,5008
2022-12-31T11:01:31.570Z,5088
2022-12-31T11:02:12.242Z,5092
2022-12-31T11:02:52.778Z,5088
2022-12-31T11:03:33.297Z,5080
2022-12-31T11:04:13.724Z,5088
2022-12-31T11:04:54.270Z,5128
2022-12-31T11:05:34.849Z,5112
2022-12-31T11:12:20.334Z,5548
2022-12-31T11:13:00.892Z,5512
2022-12-31T11:13:41.466Z,5560
2022-12-31T11:14:22.036Z,5508
2022-12-31T11:15:02.553Z,5484
2022-12-31T11:15:48.328Z,5436
2022-12-31T11:16:23.734Z,5408
2022-12-31T11:17:04.190Z,5260
2022-12-31T11:17:44.746Z,5280
2022-12-31T11:18:25.292Z,5304
2022-12-31T11:21:03.966Z,5352
2022-12-31T11:21:45.275Z,5356
2022-12-31T11:22:25.841Z,5360
2022-12-31T11:23:07.279Z,5368
2022-12-31T11:25:05.447Z,5412
2022-12-31T11:25:45.960Z,5400
2022-12-31T11:26:26.543Z,5420
2022-12-31T11:27:07.083Z,5380
2022-12-31T11:27:49.381Z,5332
2022-12-31T11:28:28.812Z,5308
2022-12-31T11:29:09.442Z,5208
2022-12-31T11:31:07.582Z,5104
2022-12-31T11:31:48.101Z,5032
2022-12-31T11:32:28.634Z,4864
2022-12-31T11:33:09.163Z,4948
2022-12-31T11:33:50.515Z,4976
2022-12-31T11:34:30.214Z,4968
2022-12-31T11:35:10.754Z,4944
2022-12-31T11:35:51.301Z,4976
2022-12-31T11:36:31.857Z,4948
2022-12-31T11:37:12.380Z,4960
2022-12-31T11:42:37.538Z,4972
2022-12-31T11:43:18.064Z,4992
2022-12-31T11:43:58.584Z,4996
2022-12-31T11:44:39.096Z,4972
2022-12-31T11:46:52.696Z,5024
2022-12-31T11:47:33.215Z,5004
2022-12-31T11:48:29.989Z,4988
2022-12-31T11:48:54.261Z,4992
2022-12-31T11:49:34.811Z,5028
2022-12-31T11:51:50.934Z,4996
2022-12-31T11:52:31.338Z,5028
2022-12-31T11:53:11.894Z,5020
2022-12-31T11:53:52.407Z,5020
2022-12-31T11:54:32.998Z,5036
2022-12-31T11:55:13.542Z,5000
2022-12-31T11:55:54.093Z,5068
2022-12-31T11:56:34.649Z,4988
2022-12-31T11:57:15.196Z,5020
2022-12-31T12:01:55.595Z,5348
2022-12-31T12:02:36.270Z,5448
2022-12-31T12:03:16.666Z,5516
2022-12-31T12:03:57.280Z,5612
2022-12-31T12:04:37.785Z,5676
2022-12-31T12:05:18.311Z,5672
2022-12-31T12:05:58.836Z,5664
2022-12-31T12:06:39.354Z,5668
2022-12-31T12:07:19.884Z,5744
2022-12-31T12:09:34.225Z,5860
2022-12-31T12:10:14.940Z,5904
2022-12-31T12:10:55.442Z,5892
2022-12-31T12:11:35.985Z,5904
2022-12-31T12:12:16.588Z,5864
2022-12-31T12:14:29.657Z,5544
2022-12-31T12:15:10.171Z,5428
2022-12-31T12:15:50.757Z,5460
2022-12-31T12:16:31.930Z,5300
2022-12-31T12:17:12.430Z,5228
2022-12-31T12:17:52.943Z,5196
2022-12-31T12:18:33.489Z,5076
2022-12-31T12:19:14.015Z,5044
2022-12-31T12:19:55.312Z,5000
2022-12-31T12:25:19.717Z,4952
2022-12-31T12:26:01.240Z,4936
2022-12-31T12:26:42.314Z,4992
2022-12-31T12:27:22.872Z,4972
2022-12-31T12:28:03.447Z,4928
2022-12-31T12:28:44.558Z,4924
2022-12-31T12:29:24.552Z,4916
2022-12-31T12:34:50.310Z,4296
2022-12-31T12:35:30.131Z,4280
2022-12-31T12:36:10.669Z,4260
2022-12-31T12:36:51.193Z,4292
2022-12-31T12:37:31.719Z,4324
2022-12-31T12:38:12.246Z,4352
2022-12-31T12:38:52.782Z,4308
2022-12-31T12:39:33.323Z,4280
2022-12-31T12:40:13.890Z,4196
2022-12-31T12:40:54.382Z,4188
2022-12-31T12:47:39.844Z,4228
2022-12-31T12:48:20.909Z,4156
2022-12-31T12:49:01.522Z,4128
2022-12-31T12:49:42.114Z,4232
2022-12-31T12:50:22.643Z,4268
2022-12-31T12:52:37.047Z,4112
2022-12-31T12:53:17.560Z,4152
2022-12-31T12:53:58.099Z,4044
2022-12-31T12:54:38.734Z,4012
2022-12-31T12:55:19.339Z,4056
2022-12-31T12:55:59.826Z,4044
2022-12-31T12:56:40.374Z,4080
2022-12-31T12:57:20.957Z,4088
2022-12-31T12:58:01.489Z,4140
2022-12-31T13:05:44.569Z,4104
2022-12-31T13:06:25.096Z,4124
2022-12-31T13:07:05.658Z,4176
2022-12-31T13:07:46.166Z,4176
2022-12-31T13:08:26.713Z,4128
2022-12-31T13:09:07.264Z,4048
2022-12-31T13:09:47.775Z,3968
2022-12-31T13:10:28.339Z,3948
2022-12-31T13:11:08.863Z,3984
2022-12-31T13:11:49.466Z,4064
2022-12-31T13:18:06.299Z,4056
2022-12-31T13:18:46.828Z,4044
2022-12-31T13:19:27.362Z,4040
2022-12-31T13:20:07.898Z,4056
2022-12-31T13:22:28.874Z,4064
2022-12-31T13:23:09.294Z,4060
2022-12-31T13:23:49.840Z,4036
2022-12-31T13:24:30.458Z,4004
2022-12-31T13:25:11.044Z,3984
2022-12-31T13:27:45.338Z,3996
2022-12-31T13:28:25.915Z,3980
2022-12-31T13:29:06.566Z,3964
2022-12-31T13:29:47.108Z,3952
2022-12-31T13:30:28.536Z,3944
2022-12-31T13:32:42.584Z,3952
2022-12-31T13:33:24.618Z,3956
2022-12-31T13:34:05.115Z,3972
2022-12-31T13:34:45.662Z,3984
2022-12-31T13:36:43.666Z,4012
2022-12-31T13:37:24.187Z,4004
2022-12-31T13:38:05.724Z,3988
2022-12-31T13:38:45.334Z,3968
2022-12-31T13:39:25.973Z,3940
2022-12-31T13:40:06.578Z,3904
2022-12-31T13:40:47.145Z,3888
2022-12-31T13:41:28.395Z,3860
2022-12-31T13:46:53.556Z,3720
2022-12-31T13:47:34.060Z,3708
2022-12-31T13:48:14.636Z,3700
2022-12-31T13:48:56.028Z,3696
2022-12-31T13:49:36.553Z,3680
2022-12-31T13:50:17.067Z,3672
2022-12-31T13:50:57.594Z,3660
2022-12-31T13:51:39.121Z,3640
2022-12-31T13:55:43.791Z,3456
2022-12-31T13:56:24.416Z,3428
2022-12-31T13:57:04.947Z,3408
2022-12-31T13:57:45.498Z,3388
2022-12-31T13:59:59.794Z,3372
2022-12-31T14:00:40.374Z,3376
2022-12-31T14:01:20.972Z,3376
2022-12-31T14:02:01.800Z,3376
2022-12-31T14:02:42.293Z,3368
2022-12-31T14:03:22.694Z,3356
2022-12-31T14:04:03.200Z,3340
2022-12-31T14:04:43.803Z,3320
2022-12-31T14:05:24.406Z,3300
2022-12-31T14:10:09.802Z,3152
2022-12-31T14:12:23.397Z,3064
2022-12-31T14:13:04.863Z,3036
2022-12-31T14:13:45.428Z,3004
2022-12-31T14:14:25.941Z,2976
2022-12-31T14:16:43.556Z,2856
2022-12-31T14:17:31.228Z,2820
2022-12-31T14:18:14.978Z,2780
2022-12-31T14:19:00.815Z,2748
2022-12-31T14:19:46.794Z,2704
2022-12-31T14:20:33.824Z,2660
2022-12-31T14:21:19.290Z,2616
2022-12-31T14:22:06.364Z,2568
2022-12-31T14:22:51.166Z,2520
2022-12-31T14:24:17.161Z,2424
2022-12-31T14:25:03.720Z,2372
2022-12-31T14:25:51.178Z,2312
2022-12-31T14:26:39.472Z,2256
2022-12-31T14:27:31.723Z,2212
2022-12-31T14:28:19.546Z,2176
2022-12-31T14:29:05.279Z,2148
2022-12-31T14:29:53.444Z,2116
2022-12-31T14:30:47.222Z,2088
2022-12-31T14:31:31.515Z,2064
2022-12-31T14:32:17.194Z,2032
2022-12-31T14:33:05.364Z,2004
2022-12-31T14:33:51.441Z,1976
2022-12-31T14:34:36.837Z,1956
2022-12-31T14:35:24.690Z,1924
2022-12-31T14:36:56.944Z,1880
2022-12-31T14:37:46.925Z,1860
2022-12-31T14:38:35.676Z,1832
2022-12-31T14:39:26.691Z,1804
2022-12-31T14:40:13.701Z,1776
2022-12-31T14:41:01.848Z,1752
2022-12-31T14:41:47.692Z,1728
2022-12-31T14:43:18.443Z,1684
2022-12-31T14:44:11.226Z,1668
2022-12-31T14:45:01.440Z,1640
2022-12-31T14:45:43.551Z,1620
2022-12-31T14:46:32.777Z,1596
2022-12-31T14:47:17.010Z,1572
2022-12-31T14:48:02.255Z,1548
2022-12-31T14:48:50.689Z,1524
2022-12-31T14:49:35.898Z,1500
2022-12-31T14:50:18.607Z,1476
2022-12-31T14:51:04.047Z,1448
2022-12-31T14:53:19.740Z,1372
2022-12-31T14:54:00.279Z,1352
2022-12-31T14:54:40.845Z,1328
2022-12-31T14:55:21.397Z,1304
2022-12-31T14:56:02.090Z,1280
2022-12-31T14:56:42.525Z,1260
2022-12-31T14:57:23.084Z,1236
2022-12-31T14:58:44.627Z,1184
2022-12-31T15:04:10.750Z,996
2022-12-31T15:04:51.299Z,976
2022-12-31T15:05:31.887Z,956
2022-12-31T15:06:12.408Z,932
2022-12-31T15:06:52.999Z,912
2022-12-31T15:07:33.650Z,888
2022-12-31T15:08:14.227Z,860
2022-12-31T15:14:19.391Z,644
2022-12-31T15:14:59.976Z,624
2022-12-31T15:15:40.577Z,604
2022-12-31T15:16:21.271Z,584
2022-12-31T15:17:01.956Z,564
2022-12-31T15:17:42.478Z,548
2022-12-31T15:18:23.001Z,528
2022-12-31T15:19:03.550Z,508
2022-12-31T15:19:44.089Z,492
2022-12-31T15:21:59.378Z,440
2022-12-31T15:22:41.439Z,428
2022-12-31T15:23:24.582Z,408
2022-12-31T15:24:05.063Z,396
2022-12-31T15:26:33.774Z,340
2022-12-31T15:27:14.563Z,324